createdAt,value
2019-05-17T10:23:03.427Z,20.90
2019-05-17T12:51:33.001Z,18.90
2019-05-17T12:56:37.391Z,21.40
2019-05-17T13:01:41.749Z,21.80
2019-05-17T13:06:45.943Z,22.10
2019-05-17T13:11:50.122Z,22.40
2019-05-17T13:16:54.331Z,22.60
2019-05-17T13:21:58.521Z,22.80
2019-05-17T13:27:02.816Z,22.90
2019-05-17T13:32:07.007Z,22.90
2019-05-17T13:37:12.816Z,23.00
2019-05-17T13:42:16.998Z,23.10
2019-05-17T13:47:21.215Z,23.10
2019-05-17T13:52:25.427Z,23.10
2019-05-17T13:57:49.036Z,23.10
2019-05-17T14:02:53.245Z,23.10
2019-05-17T14:07:57.481Z,23.10
2019-05-17T14:13:01.656Z,23.10
2019-05-17T14:18:05.843Z,23.10
2019-05-17T14:23:10.037Z,23.00
2019-05-17T14:28:14.376Z,23.00
2019-05-17T14:33:18.530Z,23.00
2019-05-17T14:38:22.820Z,23.10
2019-05-17T14:43:27.286Z,23.10
2019-05-17T14:48:31.611Z,23.10
2019-05-17T14:53:40.439Z,23.00
2019-05-17T14:58:44.764Z,23.00
2019-05-17T15:03:48.988Z,22.90
2019-05-17T15:08:53.191Z,22.90
2019-05-17T15:13:57.369Z,22.90
2019-05-17T15:19:01.599Z,22.90
2019-05-17T15:24:05.946Z,22.90
2019-05-17T15:29:10.125Z,22.90
2019-05-17T15:34:15.102Z,22.90
2019-05-17T15:39:19.288Z,22.90
2019-05-17T15:44:26.861Z,22.80
2019-05-17T15:49:29.494Z,22.80
2019-05-17T15:54:33.656Z,22.80
2019-05-17T15:59:38.029Z,22.80
2019-05-17T16:04:42.339Z,22.80
2019-05-17T16:09:49.606Z,22.70
2019-05-17T16:14:53.844Z,22.80
2019-05-17T16:19:58.024Z,22.80
2019-05-17T16:25:02.754Z,22.70
2019-05-17T16:30:07.440Z,22.80
2019-05-17T16:35:11.606Z,22.70
2019-05-17T16:40:15.835Z,22.70
2019-05-17T16:45:20.082Z,22.80
2019-05-17T16:50:24.269Z,22.80
2019-05-17T16:55:28.450Z,22.80
2019-05-17T17:00:41.977Z,22.80
2019-05-17T17:05:46.644Z,22.80
2019-05-17T17:10:51.103Z,22.80
2019-05-17T17:15:55.235Z,22.80
2019-05-17T17:20:59.454Z,22.70
2019-05-17T17:26:03.722Z,22.80
2019-05-17T17:31:10.495Z,22.80
2019-05-17T17:36:14.669Z,22.80
2019-05-17T17:41:18.981Z,22.80
2019-05-17T17:46:23.249Z,22.70
2019-05-17T17:51:27.494Z,22.80
2019-05-17T17:56:31.766Z,22.70
2019-05-17T18:01:38.076Z,22.70
2019-05-17T18:06:42.274Z,22.70
2019-05-17T18:11:46.635Z,22.70
2019-05-17T18:16:50.806Z,22.60
2019-05-17T18:21:54.999Z,22.60
2019-05-17T18:26:59.174Z,22.60
2019-05-17T18:32:03.389Z,22.50
2019-05-17T18:37:07.559Z,22.50
2019-05-17T18:42:11.747Z,22.50
2019-05-17T18:47:16.052Z,22.50
2019-05-17T18:52:21.857Z,22.50
2019-05-17T18:57:28.676Z,22.40
2019-05-17T19:02:32.820Z,22.40
2019-05-17T19:07:37.052Z,22.40
2019-05-17T19:12:41.220Z,22.40
2019-05-17T19:17:45.405Z,22.30
2019-05-17T19:22:49.567Z,22.30
2019-05-17T19:27:53.721Z,22.30
2019-05-17T19:32:57.892Z,22.20
2019-05-17T19:38:02.061Z,22.20
2019-05-17T19:43:06.241Z,22.20
2019-05-17T19:48:10.453Z,22.20
2019-05-17T19:53:14.680Z,22.10
2019-05-17T19:58:18.911Z,22.00
2019-05-17T20:03:23.107Z,22.00
2019-05-17T20:08:27.341Z,22.00
2019-05-17T20:13:31.708Z,22.00
2019-05-17T20:18:35.905Z,22.00
2019-05-17T20:23:43.410Z,21.90
2019-05-17T20:28:46.058Z,21.90
2019-05-17T20:33:50.233Z,21.90
2019-05-17T20:38:54.412Z,21.90
2019-05-17T20:43:58.578Z,21.80
2019-05-17T20:49:02.746Z,21.80
2019-05-17T20:54:06.933Z,21.80
2019-05-17T20:59:11.099Z,21.80
2019-05-17T21:04:15.269Z,21.70
2019-05-17T21:09:19.422Z,21.70
2019-05-17T21:14:23.593Z,21.70
2019-05-17T21:19:27.765Z,21.70
2019-05-17T21:24:32.064Z,21.70
2019-05-17T21:29:36.233Z,21.60
2019-05-17T21:34:40.385Z,21.60
2019-05-17T21:39:44.575Z,21.60
2019-05-17T21:44:48.731Z,21.60
2019-05-17T21:49:52.907Z,21.60
2019-05-17T21:54:57.073Z,21.50
2019-05-17T22:00:01.247Z,21.50
2019-05-17T22:05:07.265Z,21.50
2019-05-17T22:10:11.435Z,21.50
2019-05-17T22:15:15.669Z,21.50
2019-05-17T22:20:19.960Z,21.40
2019-05-17T22:25:24.132Z,21.40
2019-05-17T22:30:28.450Z,21.40
2019-05-17T22:35:32.609Z,21.40
2019-05-17T22:40:36.787Z,21.40
2019-05-17T22:45:40.983Z,21.30
2019-05-17T22:50:45.150Z,21.30
2019-05-17T22:55:49.600Z,21.30
2019-05-17T23:00:53.810Z,21.30
2019-05-17T23:05:57.960Z,21.30
2019-05-17T23:11:02.142Z,21.20
2019-05-17T23:16:08.030Z,21.20
2019-05-17T23:21:12.207Z,21.20
2019-05-17T23:26:16.368Z,21.20
2019-05-17T23:31:20.524Z,21.20
2019-05-17T23:36:24.781Z,21.20
2019-05-17T23:41:28.962Z,21.20
2019-05-17T23:46:33.202Z,21.10
2019-05-17T23:51:37.369Z,21.10
2019-05-17T23:56:41.555Z,21.10
